sensor_id;sensor_type;location;lat;lon;timestamp;P1;durP1;ratioP1;P2;durP2;ratioP2
10896;SDS011;5501;51.176;6.470;2022-09-13T00:01:57;2.45;;;2.10;;
10896;SDS011;5501;51.176;6.470;2022-09-13T00:06:59;3.30;;;1.83;;
10896;SDS011;5501;51.176;6.470;2022-09-13T00:12:00;2.03;;;1.85;;
10896;SDS011;5501;51.176;6.470;2022-09-13T00:17:02;2.35;;;1.77;;
10896;SDS011;5501;51.176;6.470;2022-09-13T00:22:04;2.20;;;2.00;;
10896;SDS011;5501;51.176;6.470;2022-09-13T00:27:06;2.13;;;1.92;;
10896;SDS011;5501;51.176;6.470;2022-09-13T00:32:08;3.03;;;1.80;;
10896;SDS011;5501;51.176;6.470;2022-09-13T00:37:09;2.15;;;1.80;;
10896;SDS011;5501;51.176;6.470;2022-09-13T00:42:11;2.63;;;1.83;;
10896;SDS011;5501;51.176;6.470;2022-09-13T00:47:14;2.42;;;1.52;;
10896;SDS011;5501;51.176;6.470;2022-09-13T00:52:21;4.22;;;2.03;;
10896;SDS011;5501;51.176;6.470;2022-09-13T00:57:26;4.47;;;1.73;;
10896;SDS011;5501;51.176;6.470;2022-09-13T01:02:29;1.70;;;1.60;;
10896;SDS011;5501;51.176;6.470;2022-09-13T01:07:31;1.50;;;1.38;;
10896;SDS011;5501;51.176;6.470;2022-09-13T01:17:56;1.60;;;1.45;;
10896;SDS011;5501;51.176;6.470;2022-09-13T01:23:32;2.53;;;1.70;;
10896;SDS011;5501;51.176;6.470;2022-09-13T01:28:52;2.00;;;1.70;;
10896;SDS011;5501;51.176;6.470;2022-09-13T01:34:15;1.50;;;1.40;;
10896;SDS011;5501;51.176;6.470;2022-09-13T01:55:47;1.95;;;1.55;;
10896;SDS011;5501;51.176;6.470;2022-09-13T02:06:20;3.17;;;1.65;;
10896;SDS011;5501;51.176;6.470;2022-09-13T02:11:25;1.90;;;1.48;;
10896;SDS011;5501;51.176;6.470;2022-09-13T02:16:35;1.85;;;1.50;;
10896;SDS011;5501;51.176;6.470;2022-09-13T02:21:40;1.55;;;1.45;;
10896;SDS011;5501;51.176;6.470;2022-09-13T02:26:45;2.53;;;1.70;;
10896;SDS011;5501;51.176;6.470;2022-09-13T02:32:03;2.38;;;1.65;;
10896;SDS011;5501;51.176;6.470;2022-09-13T02:37:10;1.77;;;1.60;;
10896;SDS011;5501;51.176;6.470;2022-09-13T02:42:14;2.15;;;1.67;;
10896;SDS011;5501;51.176;6.470;2022-09-13T03:03:23;1.70;;;1.60;;
10896;SDS011;5501;51.176;6.470;2022-09-13T03:08:25;1.95;;;1.77;;
10896;SDS011;5501;51.176;6.470;2022-09-13T03:13:32;2.90;;;1.50;;
10896;SDS011;5501;51.176;6.470;2022-09-13T03:18:54;2.90;;;1.85;;
10896;SDS011;5501;51.176;6.470;2022-09-13T03:24:33;1.92;;;1.67;;
10896;SDS011;5501;51.176;6.470;2022-09-13T03:35:07;2.10;;;1.90;;
10896;SDS011;5501;51.176;6.470;2022-09-13T03:40:20;1.85;;;1.50;;
10896;SDS011;5501;51.176;6.470;2022-09-13T03:45:29;2.90;;;1.98;;
10896;SDS011;5501;51.176;6.470;2022-09-13T03:50:36;2.33;;;2.08;;
10896;SDS011;5501;51.176;6.470;2022-09-13T03:55:40;2.03;;;1.75;;
10896;SDS011;5501;51.176;6.470;2022-09-13T04:00:43;2.55;;;2.33;;
10896;SDS011;5501;51.176;6.470;2022-09-13T04:05:46;5.22;;;2.05;;
10896;SDS011;5501;51.176;6.470;2022-09-13T04:10:49;1.80;;;1.70;;
10896;SDS011;5501;51.176;6.470;2022-09-13T04:15:52;2.47;;;2.28;;
10896;SDS011;5501;51.176;6.470;2022-09-13T04:20:55;1.98;;;1.83;;
10896;SDS011;5501;51.176;6.470;2022-09-13T04:26:02;4.55;;;2.10;;
10896;SDS011;5501;51.176;6.470;2022-09-13T04:31:05;2.05;;;1.88;;
10896;SDS011;5501;51.176;6.470;2022-09-13T04:36:06;2.25;;;2.05;;
10896;SDS011;5501;51.176;6.470;2022-09-13T04:41:08;2.70;;;2.10;;
10896;SDS011;5501;51.176;6.470;2022-09-13T04:46:10;2.50;;;2.30;;
10896;SDS011;5501;51.176;6.470;2022-09-13T04:51:12;2.15;;;1.95;;
10896;SDS011;5501;51.176;6.470;2022-09-13T04:56:15;2.60;;;2.00;;
10896;SDS011;5501;51.176;6.470;2022-09-13T05:01:17;2.72;;;2.10;;
10896;SDS011;5501;51.176;6.470;2022-09-13T05:06:19;6.55;;;1.95;;
10896;SDS011;5501;51.176;6.470;2022-09-13T05:11:22;2.90;;;1.80;;
10896;SDS011;5501;51.176;6.470;2022-09-13T05:16:29;2.70;;;1.98;;
10896;SDS011;5501;51.176;6.470;2022-09-13T05:21:33;2.95;;;2.00;;
10896;SDS011;5501;51.176;6.470;2022-09-13T05:26:34;2.25;;;1.95;;
10896;SDS011;5501;51.176;6.470;2022-09-13T05:31:38;3.60;;;2.22;;
10896;SDS011;5501;51.176;6.470;2022-09-13T05:36:41;3.85;;;2.38;;
10896;SDS011;5501;51.176;6.470;2022-09-13T05:41:43;2.58;;;2.38;;
10896;SDS011;5501;51.176;6.470;2022-09-13T05:46:45;2.55;;;2.00;;
10896;SDS011;5501;51.176;6.470;2022-09-13T05:51:47;3.47;;;2.25;;
10896;SDS011;5501;51.176;6.470;2022-09-13T05:56:49;2.50;;;2.20;;
10896;SDS011;5501;51.176;6.470;2022-09-13T06:01:52;3.65;;;2.15;;
10896;SDS011;5501;51.176;6.470;2022-09-13T06:06:54;3.83;;;2.15;;
10896;SDS011;5501;51.176;6.470;2022-09-13T06:11:56;3.10;;;2.08;;
10896;SDS011;5501;51.176;6.470;2022-09-13T06:16:57;2.17;;;1.63;;
10896;SDS011;5501;51.176;6.470;2022-09-13T06:21:59;3.60;;;1.95;;
10896;SDS011;5501;51.176;6.470;2022-09-13T06:27:00;3.13;;;2.00;;
10896;SDS011;5501;51.176;6.470;2022-09-13T06:32:02;2.92;;;2.00;;
10896;SDS011;5501;51.176;6.470;2022-09-13T06:37:04;4.45;;;1.95;;
10896;SDS011;5501;51.176;6.470;2022-09-13T06:42:06;3.92;;;1.50;;
10896;SDS011;5501;51.176;6.470;2022-09-13T06:47:13;6.25;;;2.05;;
10896;SDS011;5501;51.176;6.470;2022-09-13T06:52:14;2.95;;;2.03;;
10896;SDS011;5501;51.176;6.470;2022-09-13T06:57:16;4.47;;;2.40;;
10896;SDS011;5501;51.176;6.470;2022-09-13T07:02:17;3.03;;;2.55;;
10896;SDS011;5501;51.176;6.470;2022-09-13T07:07:19;2.28;;;1.85;;
10896;SDS011;5501;51.176;6.470;2022-09-13T07:12:21;2.15;;;1.95;;
10896;SDS011;5501;51.176;6.470;2022-09-13T07:17:22;4.63;;;1.65;;
10896;SDS011;5501;51.176;6.470;2022-09-13T07:22:24;1.98;;;1.75;;
10896;SDS011;5501;51.176;6.470;2022-09-13T07:27:27;1.65;;;1.55;;
10896;SDS011;5501;51.176;6.470;2022-09-13T07:32:30;5.93;;;2.40;;
10896;SDS011;5501;51.176;6.470;2022-09-13T07:37:33;1.75;;;1.50;;
10896;SDS011;5501;51.176;6.470;2022-09-13T07:42:36;2.40;;;1.77;;
10896;SDS011;5501;51.176;6.470;2022-09-13T07:47:38;3.53;;;1.75;;
10896;SDS011;5501;51.176;6.470;2022-09-13T07:52:40;2.15;;;1.83;;
10896;SDS011;5501;51.176;6.470;2022-09-13T07:57:41;2.13;;;1.75;;
10896;SDS011;5501;51.176;6.470;2022-09-13T08:02:43;5.53;;;1.77;;
10896;SDS011;5501;51.176;6.470;2022-09-13T08:07:45;2.95;;;1.85;;
10896;SDS011;5501;51.176;6.470;2022-09-13T08:12:46;2.40;;;2.00;;
10896;SDS011;5501;51.176;6.470;2022-09-13T08:17:48;2.58;;;2.30;;
10896;SDS011;5501;51.176;6.470;2022-09-13T08:22:49;2.58;;;1.75;;
10896;SDS011;5501;51.176;6.470;2022-09-13T08:27:51;1.70;;;1.60;;
10896;SDS011;5501;51.176;6.470;2022-09-13T08:32:53;4.25;;;2.05;;
10896;SDS011;5501;51.176;6.470;2022-09-13T08:37:55;4.18;;;2.05;;
10896;SDS011;5501;51.176;6.470;2022-09-13T08:43:11;2.25;;;2.05;;
10896;SDS011;5501;51.176;6.470;2022-09-13T08:48:26;1.90;;;1.80;;
10896;SDS011;5501;51.176;6.470;2022-09-13T08:53:42;3.05;;;2.00;;
10896;SDS011;5501;51.176;6.470;2022-09-13T09:09:31;2.50;;;2.30;;
10896;SDS011;5501;51.176;6.470;2022-09-13T09:14:38;5.75;;;2.92;;
10896;SDS011;5501;51.176;6.470;2022-09-13T09:19:47;2.35;;;2.00;;
10896;SDS011;5501;51.176;6.470;2022-09-13T09:24:55;5.80;;;2.28;;
10896;SDS011;5501;51.176;6.470;2022-09-13T09:29:58;2.80;;;2.45;;
10896;SDS011;5501;51.176;6.470;2022-09-13T09:40:31;3.58;;;2.55;;
10896;SDS011;5501;51.176;6.470;2022-09-13T09:45:36;5.43;;;2.50;;
10896;SDS011;5501;51.176;6.470;2022-09-13T09:51:00;4.43;;;2.60;;
10896;SDS011;5501;51.176;6.470;2022-09-13T09:56:14;2.50;;;2.25;;
10896;SDS011;5501;51.176;6.470;2022-09-13T10:06:29;3.20;;;2.85;;
10896;SDS011;5501;51.176;6.470;2022-09-13T10:11:38;2.63;;;2.30;;
10896;SDS011;5501;51.176;6.470;2022-09-13T10:16:49;4.05;;;2.45;;
10896;SDS011;5501;51.176;6.470;2022-09-13T10:22:05;4.43;;;2.47;;
10896;SDS011;5501;51.176;6.470;2022-09-13T10:27:24;3.90;;;3.00;;
10896;SDS011;5501;51.176;6.470;2022-09-13T10:32:32;3.08;;;2.35;;
10896;SDS011;5501;51.176;6.470;2022-09-13T10:37:34;9.25;;;2.67;;
10896;SDS011;5501;51.176;6.470;2022-09-13T10:42:36;2.80;;;2.20;;
10896;SDS011;5501;51.176;6.470;2022-09-13T10:47:42;2.08;;;1.80;;
10896;SDS011;5501;51.176;6.470;2022-09-13T10:52:48;3.25;;;2.10;;
10896;SDS011;5501;51.176;6.470;2022-09-13T10:57:53;3.08;;;2.25;;
10896;SDS011;5501;51.176;6.470;2022-09-13T11:08:17;2.20;;;2.00;;
10896;SDS011;5501;51.176;6.470;2022-09-13T11:18:54;3.05;;;2.28;;
10896;SDS011;5501;51.176;6.470;2022-09-13T11:30:19;3.50;;;2.00;;
10896;SDS011;5501;51.176;6.470;2022-09-13T11:57:04;2.05;;;1.85;;
10896;SDS011;5501;51.176;6.470;2022-09-13T12:02:28;2.78;;;1.73;;
10896;SDS011;5501;51.176;6.470;2022-09-13T12:07:46;2.95;;;1.98;;
10896;SDS011;5501;51.176;6.470;2022-09-13T12:12:51;2.45;;;1.92;;
10896;SDS011;5501;51.176;6.470;2022-09-13T12:17:57;3.50;;;1.70;;
10896;SDS011;5501;51.176;6.470;2022-09-13T12:23:08;2.75;;;1.52;;
10896;SDS011;5501;51.176;6.470;2022-09-13T12:33:19;3.15;;;1.85;;
10896;SDS011;5501;51.176;6.470;2022-09-13T12:54:15;2.83;;;1.65;;
10896;SDS011;5501;51.176;6.470;2022-09-13T13:04:55;2.17;;;1.98;;
10896;SDS011;5501;51.176;6.470;2022-09-13T13:10:00;2.95;;;1.90;;
10896;SDS011;5501;51.176;6.470;2022-09-13T13:15:19;3.50;;;1.95;;
10896;SDS011;5501;51.176;6.470;2022-09-13T13:20:41;4.45;;;2.35;;
10896;SDS011;5501;51.176;6.470;2022-09-13T13:25:57;4.85;;;1.90;;
10896;SDS011;5501;51.176;6.470;2022-09-13T13:41:52;2.00;;;1.77;;
10896;SDS011;5501;51.176;6.470;2022-09-13T14:02:30;2.22;;;1.83;;
10896;SDS011;5501;51.176;6.470;2022-09-13T14:13:19;3.60;;;1.90;;
10896;SDS011;5501;51.176;6.470;2022-09-13T14:23:46;2.30;;;1.90;;
10896;SDS011;5501;51.176;6.470;2022-09-13T14:28:47;2.55;;;2.10;;
10896;SDS011;5501;51.176;6.470;2022-09-13T14:33:49;3.63;;;2.38;;
10896;SDS011;5501;51.176;6.470;2022-09-13T14:38:52;3.75;;;2.30;;
10896;SDS011;5501;51.176;6.470;2022-09-13T14:44:19;3.80;;;2.10;;
10896;SDS011;5501;51.176;6.470;2022-09-13T14:49:30;5.07;;;2.30;;
10896;SDS011;5501;51.176;6.470;2022-09-13T14:54:41;2.30;;;1.95;;
10896;SDS011;5501;51.176;6.470;2022-09-13T14:59:45;2.90;;;1.90;;
10896;SDS011;5501;51.176;6.470;2022-09-13T15:04:51;2.88;;;2.03;;
10896;SDS011;5501;51.176;6.470;2022-09-13T15:09:56;3.15;;;2.10;;
10896;SDS011;5501;51.176;6.470;2022-09-13T15:15:21;1.90;;;1.80;;
10896;SDS011;5501;51.176;6.470;2022-09-13T15:20:24;4.57;;;2.20;;
10896;SDS011;5501;51.176;6.470;2022-09-13T15:25:29;2.10;;;1.98;;
10896;SDS011;5501;51.176;6.470;2022-09-13T15:30:38;2.60;;;2.03;;
10896;SDS011;5501;51.176;6.470;2022-09-13T15:35:42;2.97;;;2.22;;
10896;SDS011;5501;51.176;6.470;2022-09-13T15:40:46;3.55;;;1.90;;
10896;SDS011;5501;51.176;6.470;2022-09-13T15:45:58;5.45;;;2.80;;
10896;SDS011;5501;51.176;6.470;2022-09-13T15:51:09;3.53;;;2.47;;
10896;SDS011;5501;51.176;6.470;2022-09-13T15:56:13;3.20;;;2.90;;
10896;SDS011;5501;51.176;6.470;2022-09-13T16:01:17;3.10;;;2.60;;
10896;SDS011;5501;51.176;6.470;2022-09-13T16:06:19;2.30;;;2.10;;
10896;SDS011;5501;51.176;6.470;2022-09-13T16:11:25;4.35;;;3.00;;
10896;SDS011;5501;51.176;6.470;2022-09-13T16:16:27;8.45;;;3.80;;
10896;SDS011;5501;51.176;6.470;2022-09-13T16:21:29;4.28;;;3.10;;
10896;SDS011;5501;51.176;6.470;2022-09-13T16:26:30;4.97;;;3.70;;
10896;SDS011;5501;51.176;6.470;2022-09-13T16:31:33;4.57;;;4.18;;
10896;SDS011;5501;51.176;6.470;2022-09-13T16:36:34;5.10;;;4.32;;
10896;SDS011;5501;51.176;6.470;2022-09-13T16:41:37;4.53;;;4.13;;
10896;SDS011;5501;51.176;6.470;2022-09-13T16:46:39;4.85;;;4.03;;
10896;SDS011;5501;51.176;6.470;2022-09-13T16:51:41;5.75;;;4.13;;
10896;SDS011;5501;51.176;6.470;2022-09-13T16:56:42;6.20;;;4.35;;
10896;SDS011;5501;51.176;6.470;2022-09-13T17:01:44;7.90;;;4.40;;
10896;SDS011;5501;51.176;6.470;2022-09-13T17:06:45;5.30;;;3.97;;
10896;SDS011;5501;51.176;6.470;2022-09-13T17:11:47;5.43;;;3.45;;
10896;SDS011;5501;51.176;6.470;2022-09-13T17:16:51;4.10;;;3.15;;
10896;SDS011;5501;51.176;6.470;2022-09-13T17:21:54;4.13;;;2.95;;
10896;SDS011;5501;51.176;6.470;2022-09-13T17:26:57;4.85;;;3.40;;
10896;SDS011;5501;51.176;6.470;2022-09-13T17:32:00;6.05;;;3.55;;
10896;SDS011;5501;51.176;6.470;2022-09-13T17:37:03;4.35;;;3.47;;
10896;SDS011;5501;51.176;6.470;2022-09-13T17:42:06;6.38;;;4.05;;
10896;SDS011;5501;51.176;6.470;2022-09-13T17:47:08;7.25;;;4.97;;
10896;SDS011;5501;51.176;6.470;2022-09-13T17:52:09;6.15;;;4.93;;
10896;SDS011;5501;51.176;6.470;2022-09-13T17:57:11;6.28;;;4.95;;
10896;SDS011;5501;51.176;6.470;2022-09-13T18:02:15;8.15;;;5.65;;
10896;SDS011;5501;51.176;6.470;2022-09-13T18:07:17;6.18;;;5.55;;
10896;SDS011;5501;51.176;6.470;2022-09-13T18:12:19;6.63;;;5.68;;
10896;SDS011;5501;51.176;6.470;2022-09-13T18:17:20;7.22;;;6.50;;
10896;SDS011;5501;51.176;6.470;2022-09-13T18:22:22;9.40;;;6.10;;
10896;SDS011;5501;51.176;6.470;2022-09-13T18:27:23;8.23;;;5.80;;
10896;SDS011;5501;51.176;6.470;2022-09-13T18:32:25;7.78;;;5.38;;
10896;SDS011;5501;51.176;6.470;2022-09-13T18:37:26;6.90;;;4.22;;
10896;SDS011;5501;51.176;6.470;2022-09-13T18:42:30;7.82;;;4.88;;
10896;SDS011;5501;51.176;6.470;2022-09-13T18:47:33;4.93;;;4.38;;
10896;SDS011;5501;51.176;6.470;2022-09-13T18:52:37;9.02;;;5.00;;
10896;SDS011;5501;51.176;6.470;2022-09-13T18:57:39;6.82;;;4.82;;
10896;SDS011;5501;51.176;6.470;2022-09-13T19:02:40;12.43;;;6.22;;
10896;SDS011;5501;51.176;6.470;2022-09-13T19:08:02;8.82;;;5.78;;
10896;SDS011;5501;51.176;6.470;2022-09-13T19:13:07;7.03;;;6.10;;
10896;SDS011;5501;51.176;6.470;2022-09-13T19:18:08;8.25;;;5.85;;
10896;SDS011;5501;51.176;6.470;2022-09-13T19:23:10;7.90;;;6.03;;
10896;SDS011;5501;51.176;6.470;2022-09-13T19:28:11;7.50;;;5.90;;
10896;SDS011;5501;51.176;6.470;2022-09-13T19:33:13;10.07;;;6.88;;
10896;SDS011;5501;51.176;6.470;2022-09-13T19:38:14;9.40;;;7.03;;
10896;SDS011;5501;51.176;6.470;2022-09-13T19:43:16;8.85;;;6.75;;
10896;SDS011;5501;51.176;6.470;2022-09-13T19:48:17;8.68;;;7.07;;
10896;SDS011;5501;51.176;6.470;2022-09-13T19:53:38;12.60;;;6.32;;
10896;SDS011;5501;51.176;6.470;2022-09-13T19:58:57;11.00;;;6.60;;
10896;SDS011;5501;51.176;6.470;2022-09-13T20:04:01;11.93;;;6.50;;
10896;SDS011;5501;51.176;6.470;2022-09-13T20:09:07;9.18;;;6.88;;
10896;SDS011;5501;51.176;6.470;2022-09-13T20:14:10;10.50;;;7.22;;
10896;SDS011;5501;51.176;6.470;2022-09-13T20:19:14;10.60;;;7.82;;
10896;SDS011;5501;51.176;6.470;2022-09-13T20:24:40;8.02;;;7.22;;
10896;SDS011;5501;51.176;6.470;2022-09-13T20:29:41;9.82;;;7.22;;
10896;SDS011;5501;51.176;6.470;2022-09-13T20:34:43;12.63;;;8.13;;
10896;SDS011;5501;51.176;6.470;2022-09-13T20:39:44;9.20;;;7.65;;
10896;SDS011;5501;51.176;6.470;2022-09-13T20:44:46;11.45;;;8.02;;
10896;SDS011;5501;51.176;6.470;2022-09-13T20:49:47;9.55;;;8.02;;
10896;SDS011;5501;51.176;6.470;2022-09-13T20:54:49;12.70;;;8.93;;
10896;SDS011;5501;51.176;6.470;2022-09-13T20:59:51;13.05;;;9.35;;
10896;SDS011;5501;51.176;6.470;2022-09-13T21:04:52;12.07;;;8.30;;
10896;SDS011;5501;51.176;6.470;2022-09-13T21:09:54;12.77;;;10.27;;
10896;SDS011;5501;51.176;6.470;2022-09-13T21:14:56;12.68;;;9.73;;
10896;SDS011;5501;51.176;6.470;2022-09-13T21:19:58;13.90;;;10.40;;
10896;SDS011;5501;51.176;6.470;2022-09-13T21:24:59;14.95;;;10.52;;
10896;SDS011;5501;51.176;6.470;2022-09-13T21:30:01;15.45;;;11.68;;
10896;SDS011;5501;51.176;6.470;2022-09-13T21:35:03;14.90;;;11.38;;
10896;SDS011;5501;51.176;6.470;2022-09-13T21:40:06;10.55;;;6.03;;
10896;SDS011;5501;51.176;6.470;2022-09-13T21:45:08;5.80;;;4.47;;
10896;SDS011;5501;51.176;6.470;2022-09-13T21:50:09;4.30;;;3.40;;
10896;SDS011;5501;51.176;6.470;2022-09-13T21:55:11;6.95;;;2.75;;
10896;SDS011;5501;51.176;6.470;2022-09-13T22:00:12;2.70;;;2.15;;
10896;SDS011;5501;51.176;6.470;2022-09-13T22:05:15;3.28;;;2.15;;
10896;SDS011;5501;51.176;6.470;2022-09-13T22:10:16;2.47;;;1.73;;
10896;SDS011;5501;51.176;6.470;2022-09-13T22:15:18;5.63;;;2.38;;
10896;SDS011;5501;51.176;6.470;2022-09-13T22:20:19;3.47;;;2.40;;
10896;SDS011;5501;51.176;6.470;2022-09-13T22:25:21;3.08;;;2.10;;
10896;SDS011;5501;51.176;6.470;2022-09-13T22:30:22;2.17;;;1.90;;
10896;SDS011;5501;51.176;6.470;2022-09-13T22:35:23;3.38;;;2.00;;
10896;SDS011;5501;51.176;6.470;2022-09-13T22:40:25;3.95;;;2.20;;
10896;SDS011;5501;51.176;6.470;2022-09-13T22:45:27;2.75;;;2.30;;
10896;SDS011;5501;51.176;6.470;2022-09-13T22:50:30;2.35;;;2.15;;
10896;SDS011;5501;51.176;6.470;2022-09-13T22:55:32;6.00;;;1.90;;
10896;SDS011;5501;51.176;6.470;2022-09-13T23:00:34;2.67;;;2.08;;
10896;SDS011;5501;51.176;6.470;2022-09-13T23:05:35;1.80;;;1.70;;
10896;SDS011;5501;51.176;6.470;2022-09-13T23:10:37;4.50;;;2.10;;
10896;SDS011;5501;51.176;6.470;2022-09-13T23:15:39;3.70;;;1.90;;
10896;SDS011;5501;51.176;6.470;2022-09-13T23:20:40;3.38;;;2.03;;
10896;SDS011;5501;51.176;6.470;2022-09-13T23:25:43;4.15;;;1.70;;
10896;SDS011;5501;51.176;6.470;2022-09-13T23:30:45;2.13;;;1.92;;
10896;SDS011;5501;51.176;6.470;2022-09-13T23:35:46;4.63;;;1.88;;
10896;SDS011;5501;51.176;6.470;2022-09-13T23:40:48;5.45;;;1.90;;
10896;SDS011;5501;51.176;6.470;2022-09-13T23:45:51;3.13;;;1.92;;
10896;SDS011;5501;51.176;6.470;2022-09-13T23:51:01;3.15;;;2.20;;
10896;SDS011;5501;51.176;6.470;2022-09-13T23:56:04;3.45;;;1.80;;
